Shipshewana, IN

11:06 AM EST on March 04, 2015 (GMT -0500)
Kirsch Municipal | Change Station
CLOSE
Current Station
Airport
Location: Sturgis,
Elevation: 925 ft
Nearby Weather Stations

Elev 925 ft 41.82 °N, 85.44 °W | Updated 12 minutes ago

Overcast
Overcast
28 °F
Feels Like 19 °F
N
10
Wind Variable Wind from WNW

Today
High -- | Low -- °F
--% Chance of Precip.
Yesterday
High -- | Low -- °F
Precip. -- in
7:12 AM 6:36 PM
Waxing Gibbous, 99% visible
Pressure 29.99 in
Visibility 10.0 miles
Clouds Scattered Clouds 2600 ft
Mostly Cloudy 3100 ft
Windchill 19 °F
Dew Point 19 °F
Humidity 69%
Rainfall 0.00 in
Snow Depth Not available.
UV 2 out of 12
Pollen .40 out of 12
Air Quality Not available.
Flu Activity Not available.
METAR KIRS 041554Z AUTO 29009KT 10SM SCT026 BKN031 M02/M07 A2999 RMK AO2

More Conditions Fewer Conditions

Pressure 29.99 in
Visibility 10.0 miles
Clouds Scattered Clouds 2600 ft
Mostly Cloudy 3100 ft
Windchill 19 °F
Dew Point 19 °F
Humidity 69%
Rainfall 0.00 in
Snow Depth Not available.
UV 2 out of 12
Pollen .40 out of 12
Air Quality Not available.
Flu Activity Not available.
METAR KIRS 041554Z AUTO 29009KT 10SM SCT026 BKN031 M02/M07 A2999 RMK AO2

More Conditions Fewer Conditions

10-Day Weather Forecast

Almanac

Astronomy

Mar. 04, 2015 Rise Set
Actual Time
Civil Twilight
Nautical Twilight
Astronomical Twilight
Moon
Length of Visible Light
Length of Day
Tomorrow will be .
, % of the Moon is Illuminated

Today's Extremes

State Highs State Lows

Community

WunderPhotos

Upload Photos

1,802,502 photos uploaded!

WunderBlogs® & News

Nearby

Air Quality

  Air Quality AQ Index Pollutant
Not available.

Snow Depth

Station Depth Elevation

Earthquake Activity

City Distance Mag. Time & Date
Minimum magnitude displayed is 2.5.

Coastal Water Temperatures

Place Temperature

Nearby Weather Stations